sensor_id;sensor_type;location;lat;lon;timestamp;P1;durP1;ratioP1;P2;durP2;ratioP2
53261;SDS011;39658;51.090;-1.786;2022-08-19T00:01:45;9.95;;;2.72;;
53261;SDS011;39658;51.090;-1.786;2022-08-19T00:04:15;9.30;;;2.70;;
53261;SDS011;39658;51.090;-1.786;2022-08-19T00:06:45;9.15;;;2.50;;
53261;SDS011;39658;51.090;-1.786;2022-08-19T00:09:13;6.38;;;1.90;;
53261;SDS011;39658;51.090;-1.786;2022-08-19T00:11:42;8.48;;;2.38;;
53261;SDS011;39658;51.090;-1.786;2022-08-19T00:14:11;7.05;;;1.70;;
53261;SDS011;39658;51.090;-1.786;2022-08-19T00:16:40;5.95;;;1.80;;
53261;SDS011;39658;51.090;-1.786;2022-08-19T00:19:09;8.07;;;2.13;;
53261;SDS011;39658;51.090;-1.786;2022-08-19T00:21:36;6.30;;;1.65;;
53261;SDS011;39658;51.090;-1.786;2022-08-19T00:24:05;4.32;;;1.30;;
53261;SDS011;39658;51.090;-1.786;2022-08-19T00:26:32;4.63;;;1.23;;
53261;SDS011;39658;51.090;-1.786;2022-08-19T00:28:58;4.47;;;0.88;;
53261;SDS011;39658;51.090;-1.786;2022-08-19T00:31:27;6.55;;;1.30;;
53261;SDS011;39658;51.090;-1.786;2022-08-19T00:33:54;2.38;;;1.00;;
53261;SDS011;39658;51.090;-1.786;2022-08-19T00:36:21;4.47;;;1.20;;
53261;SDS011;39658;51.090;-1.786;2022-08-19T00:38:47;5.38;;;1.40;;
53261;SDS011;39658;51.090;-1.786;2022-08-19T00:41:17;6.82;;;1.52;;
53261;SDS011;39658;51.090;-1.786;2022-08-19T00:43:55;4.07;;;1.30;;
53261;SDS011;39658;51.090;-1.786;2022-08-19T00:46:23;5.90;;;1.75;;
53261;SDS011;39658;51.090;-1.786;2022-08-19T00:48:51;5.10;;;1.50;;
53261;SDS011;39658;51.090;-1.786;2022-08-19T00:51:18;5.25;;;1.50;;
53261;SDS011;39658;51.090;-1.786;2022-08-19T00:53:45;3.63;;;1.35;;
53261;SDS011;39658;51.090;-1.786;2022-08-19T00:56:12;4.40;;;1.52;;
53261;SDS011;39658;51.090;-1.786;2022-08-19T00:58:40;4.47;;;1.58;;
53261;SDS011;39658;51.090;-1.786;2022-08-19T01:01:07;7.60;;;1.60;;
53261;SDS011;39658;51.090;-1.786;2022-08-19T01:03:34;5.00;;;1.60;;
53261;SDS011;39658;51.090;-1.786;2022-08-19T01:06:02;6.93;;;1.70;;
53261;SDS011;39658;51.090;-1.786;2022-08-19T01:08:29;6.05;;;1.80;;
53261;SDS011;39658;51.090;-1.786;2022-08-19T01:10:56;5.10;;;1.40;;
53261;SDS011;39658;51.090;-1.786;2022-08-19T01:13:27;5.05;;;1.70;;
53261;SDS011;39658;51.090;-1.786;2022-08-19T01:15:57;4.95;;;1.60;;
53261;SDS011;39658;51.090;-1.786;2022-08-19T01:18:26;6.88;;;1.83;;
53261;SDS011;39658;51.090;-1.786;2022-08-19T01:20:55;5.50;;;1.80;;
53261;SDS011;39658;51.090;-1.786;2022-08-19T01:23:27;5.55;;;1.50;;
53261;SDS011;39658;51.090;-1.786;2022-08-19T01:26:08;4.40;;;1.63;;
53261;SDS011;39658;51.090;-1.786;2022-08-19T01:28:36;5.97;;;2.00;;
53261;SDS011;39658;51.090;-1.786;2022-08-19T01:31:03;5.68;;;1.52;;
53261;SDS011;39658;51.090;-1.786;2022-08-19T01:33:31;5.03;;;1.40;;
53261;SDS011;39658;51.090;-1.786;2022-08-19T01:36:03;5.80;;;1.50;;
53261;SDS011;39658;51.090;-1.786;2022-08-19T01:38:35;1.80;;;0.90;;
53261;SDS011;39658;51.090;-1.786;2022-08-19T01:41:04;5.13;;;1.08;;
53261;SDS011;39658;51.090;-1.786;2022-08-19T01:43:31;2.47;;;1.00;;
53261;SDS011;39658;51.090;-1.786;2022-08-19T01:45:58;2.60;;;1.02;;
53261;SDS011;39658;51.090;-1.786;2022-08-19T01:48:25;2.17;;;0.90;;
53261;SDS011;39658;51.090;-1.786;2022-08-19T01:50:54;2.25;;;0.80;;
53261;SDS011;39658;51.090;-1.786;2022-08-19T01:53:21;3.22;;;1.00;;
53261;SDS011;39658;51.090;-1.786;2022-08-19T01:55:49;1.40;;;0.70;;
53261;SDS011;39658;51.090;-1.786;2022-08-19T01:58:16;3.35;;;0.80;;
53261;SDS011;39658;51.090;-1.786;2022-08-19T02:00:46;5.15;;;0.65;;
53261;SDS011;39658;51.090;-1.786;2022-08-19T02:03:13;1.73;;;0.80;;
53261;SDS011;39658;51.090;-1.786;2022-08-19T02:05:41;2.10;;;0.65;;
53261;SDS011;39658;51.090;-1.786;2022-08-19T02:08:08;1.23;;;0.60;;
53261;SDS011;39658;51.090;-1.786;2022-08-19T02:10:37;1.08;;;0.50;;
53261;SDS011;39658;51.090;-1.786;2022-08-19T02:13:07;1.77;;;0.57;;
53261;SDS011;39658;51.090;-1.786;2022-08-19T02:15:34;0.90;;;0.40;;
53261;SDS011;39658;51.090;-1.786;2022-08-19T02:18:01;2.60;;;0.60;;
53261;SDS011;39658;51.090;-1.786;2022-08-19T02:20:28;2.33;;;0.50;;
53261;SDS011;39658;51.090;-1.786;2022-08-19T02:22:54;1.95;;;0.50;;
53261;SDS011;39658;51.090;-1.786;2022-08-19T02:25:21;0.73;;;0.30;;
53261;SDS011;39658;51.090;-1.786;2022-08-19T02:27:48;1.05;;;0.30;;
53261;SDS011;39658;51.090;-1.786;2022-08-19T02:30:16;1.20;;;0.55;;
53261;SDS011;39658;51.090;-1.786;2022-08-19T02:32:44;2.63;;;0.50;;
53261;SDS011;39658;51.090;-1.786;2022-08-19T02:35:11;1.15;;;0.30;;
53261;SDS011;39658;51.090;-1.786;2022-08-19T02:37:38;3.95;;;0.88;;
53261;SDS011;39658;51.090;-1.786;2022-08-19T02:40:23;1.38;;;0.55;;
53261;SDS011;39658;51.090;-1.786;2022-08-19T02:42:49;2.47;;;0.70;;
53261;SDS011;39658;51.090;-1.786;2022-08-19T02:45:18;1.85;;;0.52;;
53261;SDS011;39658;51.090;-1.786;2022-08-19T02:47:45;2.95;;;0.60;;
53261;SDS011;39658;51.090;-1.786;2022-08-19T02:50:11;2.38;;;0.50;;
53261;SDS011;39658;51.090;-1.786;2022-08-19T02:52:39;2.08;;;0.55;;
53261;SDS011;39658;51.090;-1.786;2022-08-19T02:55:07;2.13;;;0.60;;
53261;SDS011;39658;51.090;-1.786;2022-08-19T02:57:34;2.55;;;0.70;;
53261;SDS011;39658;51.090;-1.786;2022-08-19T03:00:02;2.80;;;0.80;;
53261;SDS011;39658;51.090;-1.786;2022-08-19T03:02:32;1.63;;;0.70;;
53261;SDS011;39658;51.090;-1.786;2022-08-19T03:04:59;2.22;;;0.70;;
53261;SDS011;39658;51.090;-1.786;2022-08-19T03:07:26;2.40;;;0.68;;
53261;SDS011;39658;51.090;-1.786;2022-08-19T03:09:54;1.38;;;0.60;;
53261;SDS011;39658;51.090;-1.786;2022-08-19T03:12:20;0.95;;;0.40;;
53261;SDS011;39658;51.090;-1.786;2022-08-19T03:14:47;1.63;;;0.50;;
53261;SDS011;39658;51.090;-1.786;2022-08-19T03:17:14;1.80;;;0.55;;
53261;SDS011;39658;51.090;-1.786;2022-08-19T03:19:42;1.73;;;0.50;;
53261;SDS011;39658;51.090;-1.786;2022-08-19T03:22:09;1.15;;;0.40;;
53261;SDS011;39658;51.090;-1.786;2022-08-19T03:24:36;4.57;;;0.60;;
53261;SDS011;39658;51.090;-1.786;2022-08-19T03:27:03;3.22;;;0.80;;
53261;SDS011;39658;51.090;-1.786;2022-08-19T03:29:30;2.45;;;0.68;;
53261;SDS011;39658;51.090;-1.786;2022-08-19T03:31:58;2.63;;;0.70;;
53261;SDS011;39658;51.090;-1.786;2022-08-19T03:34:27;1.65;;;0.63;;
53261;SDS011;39658;51.090;-1.786;2022-08-19T03:36:57;4.07;;;0.90;;
53261;SDS011;39658;51.090;-1.786;2022-08-19T03:39:26;5.70;;;1.10;;
53261;SDS011;39658;51.090;-1.786;2022-08-19T03:41:53;4.15;;;0.70;;
53261;SDS011;39658;51.090;-1.786;2022-08-19T03:44:23;3.85;;;0.93;;
53261;SDS011;39658;51.090;-1.786;2022-08-19T03:46:50;2.92;;;0.90;;
53261;SDS011;39658;51.090;-1.786;2022-08-19T03:49:18;5.30;;;1.52;;
53261;SDS011;39658;51.090;-1.786;2022-08-19T03:51:48;4.00;;;0.90;;
53261;SDS011;39658;51.090;-1.786;2022-08-19T03:54:17;4.50;;;1.17;;
53261;SDS011;39658;51.090;-1.786;2022-08-19T03:56:48;5.67;;;1.13;;
53261;SDS011;39658;51.090;-1.786;2022-08-19T03:59:17;5.10;;;1.27;;
53261;SDS011;39658;51.090;-1.786;2022-08-19T04:01:46;4.35;;;0.90;;
53261;SDS011;39658;51.090;-1.786;2022-08-19T04:04:13;3.95;;;1.15;;
53261;SDS011;39658;51.090;-1.786;2022-08-19T04:06:40;5.65;;;1.00;;
53261;SDS011;39658;51.090;-1.786;2022-08-19T04:09:07;3.80;;;1.10;;
53261;SDS011;39658;51.090;-1.786;2022-08-19T04:11:38;3.28;;;1.00;;
53261;SDS011;39658;51.090;-1.786;2022-08-19T04:14:07;4.63;;;1.05;;
53261;SDS011;39658;51.090;-1.786;2022-08-19T04:16:34;4.68;;;0.95;;
53261;SDS011;39658;51.090;-1.786;2022-08-19T04:19:02;4.35;;;1.00;;
53261;SDS011;39658;51.090;-1.786;2022-08-19T04:21:30;4.55;;;0.90;;
53261;SDS011;39658;51.090;-1.786;2022-08-19T04:23:57;5.07;;;1.17;;
53261;SDS011;39658;51.090;-1.786;2022-08-19T04:26:25;5.80;;;1.10;;
53261;SDS011;39658;51.090;-1.786;2022-08-19T04:28:54;9.40;;;1.80;;
53261;SDS011;39658;51.090;-1.786;2022-08-19T04:31:22;6.30;;;1.20;;
53261;SDS011;39658;51.090;-1.786;2022-08-19T04:33:51;4.25;;;1.10;;
53261;SDS011;39658;51.090;-1.786;2022-08-19T04:36:19;5.30;;;1.38;;
53261;SDS011;39658;51.090;-1.786;2022-08-19T04:38:48;4.47;;;1.08;;
53261;SDS011;39658;51.090;-1.786;2022-08-19T04:41:15;5.10;;;1.13;;
53261;SDS011;39658;51.090;-1.786;2022-08-19T04:44:01;5.60;;;1.40;;
53261;SDS011;39658;51.090;-1.786;2022-08-19T04:46:28;6.07;;;1.20;;
53261;SDS011;39658;51.090;-1.786;2022-08-19T04:48:57;5.65;;;1.13;;
53261;SDS011;39658;51.090;-1.786;2022-08-19T04:51:24;4.68;;;1.20;;
53261;SDS011;39658;51.090;-1.786;2022-08-19T04:53:51;6.13;;;1.40;;
53261;SDS011;39658;51.090;-1.786;2022-08-19T04:56:19;6.45;;;1.45;;
53261;SDS011;39658;51.090;-1.786;2022-08-19T04:58:47;7.05;;;1.58;;
53261;SDS011;39658;51.090;-1.786;2022-08-19T05:01:20;5.40;;;1.67;;
53261;SDS011;39658;51.090;-1.786;2022-08-19T05:03:48;7.90;;;1.60;;
53261;SDS011;39658;51.090;-1.786;2022-08-19T05:06:16;6.38;;;1.63;;
53261;SDS011;39658;51.090;-1.786;2022-08-19T05:08:45;7.57;;;1.90;;
53261;SDS011;39658;51.090;-1.786;2022-08-19T05:11:13;6.10;;;1.60;;
53261;SDS011;39658;51.090;-1.786;2022-08-19T05:13:41;6.15;;;1.52;;
53261;SDS011;39658;51.090;-1.786;2022-08-19T05:16:09;7.43;;;1.80;;
53261;SDS011;39658;51.090;-1.786;2022-08-19T05:18:39;7.88;;;2.00;;
53261;SDS011;39658;51.090;-1.786;2022-08-19T05:21:24;7.60;;;1.83;;
53261;SDS011;39658;51.090;-1.786;2022-08-19T05:24:09;7.78;;;1.90;;
53261;SDS011;39658;51.090;-1.786;2022-08-19T05:26:39;9.18;;;2.05;;
53261;SDS011;39658;51.090;-1.786;2022-08-19T05:29:07;8.93;;;1.90;;
53261;SDS011;39658;51.090;-1.786;2022-08-19T05:31:35;8.85;;;1.90;;
53261;SDS011;39658;51.090;-1.786;2022-08-19T05:34:04;8.80;;;1.88;;
53261;SDS011;39658;51.090;-1.786;2022-08-19T05:36:34;8.50;;;1.95;;
53261;SDS011;39658;51.090;-1.786;2022-08-19T05:39:04;9.88;;;2.40;;
53261;SDS011;39658;51.090;-1.786;2022-08-19T05:41:32;8.75;;;1.85;;
53261;SDS011;39658;51.090;-1.786;2022-08-19T05:44:00;12.20;;;2.58;;
53261;SDS011;39658;51.090;-1.786;2022-08-19T05:46:31;8.60;;;2.13;;
53261;SDS011;39658;51.090;-1.786;2022-08-19T05:48:58;13.10;;;2.10;;
53261;SDS011;39658;51.090;-1.786;2022-08-19T05:51:26;11.30;;;2.47;;
53261;SDS011;39658;51.090;-1.786;2022-08-19T05:53:53;12.35;;;2.20;;
53261;SDS011;39658;51.090;-1.786;2022-08-19T05:56:20;12.65;;;2.53;;
53261;SDS011;39658;51.090;-1.786;2022-08-19T05:58:46;12.90;;;2.60;;
53261;SDS011;39658;51.090;-1.786;2022-08-19T06:01:14;11.20;;;2.80;;
53261;SDS011;39658;51.090;-1.786;2022-08-19T06:03:43;10.30;;;2.50;;
53261;SDS011;39658;51.090;-1.786;2022-08-19T06:06:11;13.50;;;2.42;;
53261;SDS011;39658;51.090;-1.786;2022-08-19T06:08:40;11.20;;;2.75;;
53261;SDS011;39658;51.090;-1.786;2022-08-19T06:11:12;15.73;;;2.97;;
53261;SDS011;39658;51.090;-1.786;2022-08-19T06:13:43;15.07;;;3.20;;
53261;SDS011;39658;51.090;-1.786;2022-08-19T06:16:12;15.00;;;3.60;;
53261;SDS011;39658;51.090;-1.786;2022-08-19T06:18:47;14.23;;;3.20;;
53261;SDS011;39658;51.090;-1.786;2022-08-19T06:21:16;19.05;;;3.47;;
53261;SDS011;39658;51.090;-1.786;2022-08-19T06:23:45;17.20;;;3.40;;
53261;SDS011;39658;51.090;-1.786;2022-08-19T06:26:12;12.25;;;3.10;;
53261;SDS011;39658;51.090;-1.786;2022-08-19T06:28:39;12.90;;;3.00;;
53261;SDS011;39658;51.090;-1.786;2022-08-19T06:31:08;12.10;;;2.80;;
53261;SDS011;39658;51.090;-1.786;2022-08-19T06:33:36;16.73;;;3.38;;
53261;SDS011;39658;51.090;-1.786;2022-08-19T06:36:04;17.20;;;4.07;;
53261;SDS011;39658;51.090;-1.786;2022-08-19T06:38:31;15.32;;;3.80;;
53261;SDS011;39658;51.090;-1.786;2022-08-19T06:41:01;13.57;;;2.97;;
53261;SDS011;39658;51.090;-1.786;2022-08-19T06:43:29;16.27;;;3.65;;
53261;SDS011;39658;51.090;-1.786;2022-08-19T06:45:55;15.32;;;3.22;;
53261;SDS011;39658;51.090;-1.786;2022-08-19T06:48:24;19.63;;;3.70;;
53261;SDS011;39658;51.090;-1.786;2022-08-19T06:50:51;17.63;;;3.85;;
53261;SDS011;39658;51.090;-1.786;2022-08-19T06:53:18;15.10;;;3.70;;
53261;SDS011;39658;51.090;-1.786;2022-08-19T06:55:45;18.88;;;3.35;;
53261;SDS011;39658;51.090;-1.786;2022-08-19T06:58:13;15.98;;;3.65;;
53261;SDS011;39658;51.090;-1.786;2022-08-19T07:00:40;17.13;;;4.22;;
53261;SDS011;39658;51.090;-1.786;2022-08-19T07:03:07;18.85;;;4.43;;
53261;SDS011;39658;51.090;-1.786;2022-08-19T07:05:37;15.63;;;3.70;;
53261;SDS011;39658;51.090;-1.786;2022-08-19T07:08:05;15.43;;;3.55;;
53261;SDS011;39658;51.090;-1.786;2022-08-19T07:10:32;15.85;;;3.67;;
53261;SDS011;39658;51.090;-1.786;2022-08-19T07:13:00;20.33;;;4.03;;
53261;SDS011;39658;51.090;-1.786;2022-08-19T07:15:28;18.23;;;3.88;;
53261;SDS011;39658;51.090;-1.786;2022-08-19T07:17:55;18.80;;;4.47;;
53261;SDS011;39658;51.090;-1.786;2022-08-19T07:20:22;17.15;;;4.07;;
53261;SDS011;39658;51.090;-1.786;2022-08-19T07:22:49;14.88;;;3.80;;
53261;SDS011;39658;51.090;-1.786;2022-08-19T07:25:16;17.80;;;3.85;;
53261;SDS011;39658;51.090;-1.786;2022-08-19T07:27:43;14.68;;;3.70;;
53261;SDS011;39658;51.090;-1.786;2022-08-19T07:30:11;15.55;;;3.45;;
53261;SDS011;39658;51.090;-1.786;2022-08-19T07:32:39;20.92;;;3.85;;
53261;SDS011;39658;51.090;-1.786;2022-08-19T07:35:07;15.27;;;3.30;;
53261;SDS011;39658;51.090;-1.786;2022-08-19T07:37:35;15.30;;;3.97;;
53261;SDS011;39658;51.090;-1.786;2022-08-19T07:40:04;16.80;;;3.80;;
53261;SDS011;39658;51.090;-1.786;2022-08-19T07:42:32;14.90;;;3.45;;
53261;SDS011;39658;51.090;-1.786;2022-08-19T07:44:59;15.30;;;3.10;;
53261;SDS011;39658;51.090;-1.786;2022-08-19T07:47:26;14.90;;;3.53;;
53261;SDS011;39658;51.090;-1.786;2022-08-19T07:49:54;15.73;;;3.40;;
53261;SDS011;39658;51.090;-1.786;2022-08-19T07:52:22;15.82;;;3.40;;
53261;SDS011;39658;51.090;-1.786;2022-08-19T07:54:49;12.80;;;3.38;;
53261;SDS011;39658;51.090;-1.786;2022-08-19T07:57:16;16.35;;;3.90;;
53261;SDS011;39658;51.090;-1.786;2022-08-19T07:59:44;13.57;;;2.97;;
53261;SDS011;39658;51.090;-1.786;2022-08-19T08:02:11;18.00;;;4.00;;
53261;SDS011;39658;51.090;-1.786;2022-08-19T08:04:37;13.60;;;3.55;;
53261;SDS011;39658;51.090;-1.786;2022-08-19T08:07:23;14.43;;;3.55;;
53261;SDS011;39658;51.090;-1.786;2022-08-19T08:10:07;14.73;;;3.80;;
53261;SDS011;39658;51.090;-1.786;2022-08-19T08:12:35;13.55;;;3.20;;
53261;SDS011;39658;51.090;-1.786;2022-08-19T08:15:07;15.65;;;3.35;;
53261;SDS011;39658;51.090;-1.786;2022-08-19T08:17:36;12.98;;;3.38;;
53261;SDS011;39658;51.090;-1.786;2022-08-19T08:20:03;13.32;;;3.35;;
53261;SDS011;39658;51.090;-1.786;2022-08-19T08:22:34;16.50;;;3.75;;
53261;SDS011;39658;51.090;-1.786;2022-08-19T08:25:21;23.48;;;4.60;;
53261;SDS011;39658;51.090;-1.786;2022-08-19T08:27:49;14.27;;;4.18;;
53261;SDS011;39658;51.090;-1.786;2022-08-19T08:30:19;14.20;;;3.70;;
53261;SDS011;39658;51.090;-1.786;2022-08-19T08:32:48;13.02;;;3.35;;
53261;SDS011;39658;51.090;-1.786;2022-08-19T08:35:16;14.25;;;3.42;;
53261;SDS011;39658;51.090;-1.786;2022-08-19T08:37:48;14.23;;;3.60;;
53261;SDS011;39658;51.090;-1.786;2022-08-19T08:40:17;12.95;;;3.72;;
53261;SDS011;39658;51.090;-1.786;2022-08-19T08:42:50;12.45;;;3.42;;
53261;SDS011;39658;51.090;-1.786;2022-08-19T08:45:23;14.93;;;3.72;;
53261;SDS011;39658;51.090;-1.786;2022-08-19T08:47:51;13.13;;;3.08;;
53261;SDS011;39658;51.090;-1.786;2022-08-19T08:50:23;15.43;;;3.53;;
53261;SDS011;39658;51.090;-1.786;2022-08-19T08:52:56;11.70;;;2.92;;
53261;SDS011;39658;51.090;-1.786;2022-08-19T08:55:26;11.32;;;3.33;;
53261;SDS011;39658;51.090;-1.786;2022-08-19T08:57:55;13.00;;;3.63;;
53261;SDS011;39658;51.090;-1.786;2022-08-19T09:00:28;12.98;;;3.30;;
53261;SDS011;39658;51.090;-1.786;2022-08-19T09:02:59;14.65;;;3.35;;
53261;SDS011;39658;51.090;-1.786;2022-08-19T09:05:30;12.45;;;3.42;;
53261;SDS011;39658;51.090;-1.786;2022-08-19T09:08:12;16.58;;;3.50;;
53261;SDS011;39658;51.090;-1.786;2022-08-19T09:10:44;11.98;;;3.42;;
53261;SDS011;39658;51.090;-1.786;2022-08-19T09:13:17;11.57;;;3.10;;
53261;SDS011;39658;51.090;-1.786;2022-08-19T09:15:53;15.70;;;3.35;;
53261;SDS011;39658;51.090;-1.786;2022-08-19T09:18:26;11.77;;;3.35;;
53261;SDS011;39658;51.090;-1.786;2022-08-19T09:21:05;11.18;;;2.95;;
53261;SDS011;39658;51.090;-1.786;2022-08-19T09:23:35;15.88;;;3.38;;
53261;SDS011;39658;51.090;-1.786;2022-08-19T09:26:06;9.30;;;3.03;;
53261;SDS011;39658;51.090;-1.786;2022-08-19T09:28:33;9.50;;;2.97;;
53261;SDS011;39658;51.090;-1.786;2022-08-19T09:31:02;13.52;;;3.22;;
53261;SDS011;39658;51.090;-1.786;2022-08-19T09:33:29;12.57;;;3.17;;
53261;SDS011;39658;51.090;-1.786;2022-08-19T09:36:03;11.25;;;2.90;;
53261;SDS011;39658;51.090;-1.786;2022-08-19T09:38:32;8.68;;;3.00;;
53261;SDS011;39658;51.090;-1.786;2022-08-19T09:41:03;13.25;;;2.83;;
53261;SDS011;39658;51.090;-1.786;2022-08-19T09:43:31;16.45;;;3.42;;
53261;SDS011;39658;51.090;-1.786;2022-08-19T09:45:59;11.23;;;2.80;;
53261;SDS011;39658;51.090;-1.786;2022-08-19T09:48:26;10.90;;;3.00;;
53261;SDS011;39658;51.090;-1.786;2022-08-19T09:50:53;10.60;;;2.88;;
53261;SDS011;39658;51.090;-1.786;2022-08-19T09:53:19;10.77;;;3.13;;
53261;SDS011;39658;51.090;-1.786;2022-08-19T09:55:48;11.45;;;2.75;;
53261;SDS011;39658;51.090;-1.786;2022-08-19T09:58:16;10.60;;;2.60;;
53261;SDS011;39658;51.090;-1.786;2022-08-19T10:00:43;11.88;;;3.28;;
53261;SDS011;39658;51.090;-1.786;2022-08-19T10:03:11;11.40;;;3.13;;
53261;SDS011;39658;51.090;-1.786;2022-08-19T10:05:37;13.35;;;3.25;;
53261;SDS011;39658;51.090;-1.786;2022-08-19T10:08:17;9.27;;;3.10;;
53261;SDS011;39658;51.090;-1.786;2022-08-19T10:10:45;11.45;;;3.00;;
53261;SDS011;39658;51.090;-1.786;2022-08-19T10:13:12;8.43;;;3.03;;
53261;SDS011;39658;51.090;-1.786;2022-08-19T10:15:41;18.02;;;3.33;;
53261;SDS011;39658;51.090;-1.786;2022-08-19T10:18:08;11.60;;;3.20;;
53261;SDS011;39658;51.090;-1.786;2022-08-19T10:20:36;13.03;;;3.90;;
53261;SDS011;39658;51.090;-1.786;2022-08-19T10:23:03;10.90;;;2.83;;
53261;SDS011;39658;51.090;-1.786;2022-08-19T10:25:31;10.30;;;2.90;;
53261;SDS011;39658;51.090;-1.786;2022-08-19T10:28:00;10.32;;;2.83;;
53261;SDS011;39658;51.090;-1.786;2022-08-19T10:30:26;10.45;;;2.63;;
53261;SDS011;39658;51.090;-1.786;2022-08-19T10:32:55;11.95;;;2.70;;
53261;SDS011;39658;51.090;-1.786;2022-08-19T10:35:22;12.93;;;3.00;;
53261;SDS011;39658;51.090;-1.786;2022-08-19T10:37:49;13.73;;;3.55;;
53261;SDS011;39658;51.090;-1.786;2022-08-19T10:40:16;15.60;;;3.42;;
53261;SDS011;39658;51.090;-1.786;2022-08-19T10:42:43;12.05;;;3.35;;
53261;SDS011;39658;51.090;-1.786;2022-08-19T10:45:10;9.25;;;2.70;;
53261;SDS011;39658;51.090;-1.786;2022-08-19T10:47:37;14.40;;;2.92;;
53261;SDS011;39658;51.090;-1.786;2022-08-19T10:50:05;13.60;;;3.10;;
53261;SDS011;39658;51.090;-1.786;2022-08-19T10:52:50;10.98;;;2.95;;
53261;SDS011;39658;51.090;-1.786;2022-08-19T10:55:18;11.55;;;3.30;;
53261;SDS011;39658;51.090;-1.786;2022-08-19T10:58:04;14.18;;;3.10;;
53261;SDS011;39658;51.090;-1.786;2022-08-19T11:00:37;11.48;;;2.60;;
53261;SDS011;39658;51.090;-1.786;2022-08-19T11:03:05;11.18;;;3.13;;
53261;SDS011;39658;51.090;-1.786;2022-08-19T11:05:33;10.68;;;3.03;;
53261;SDS011;39658;51.090;-1.786;2022-08-19T11:08:00;11.50;;;3.30;;
53261;SDS011;39658;51.090;-1.786;2022-08-19T11:10:27;15.40;;;3.25;;
53261;SDS011;39658;51.090;-1.786;2022-08-19T11:12:54;11.10;;;3.13;;
53261;SDS011;39658;51.090;-1.786;2022-08-19T11:15:21;11.23;;;2.85;;
53261;SDS011;39658;51.090;-1.786;2022-08-19T11:17:48;9.60;;;3.00;;
53261;SDS011;39658;51.090;-1.786;2022-08-19T11:20:19;15.52;;;3.00;;
53261;SDS011;39658;51.090;-1.786;2022-08-19T11:22:47;9.18;;;2.85;;
53261;SDS011;39658;51.090;-1.786;2022-08-19T11:25:14;12.32;;;3.05;;
53261;SDS011;39658;51.090;-1.786;2022-08-19T11:27:41;11.30;;;3.45;;
53261;SDS011;39658;51.090;-1.786;2022-08-19T11:30:09;11.60;;;3.20;;
53261;SDS011;39658;51.090;-1.786;2022-08-19T11:32:37;13.93;;;3.28;;
53261;SDS011;39658;51.090;-1.786;2022-08-19T11:35:04;10.63;;;3.00;;
53261;SDS011;39658;51.090;-1.786;2022-08-19T11:37:31;12.90;;;3.10;;
53261;SDS011;39658;51.090;-1.786;2022-08-19T11:40:05;9.77;;;2.80;;
53261;SDS011;39658;51.090;-1.786;2022-08-19T11:42:32;10.70;;;2.97;;
53261;SDS011;39658;51.090;-1.786;2022-08-19T11:45:16;12.98;;;2.70;;
53261;SDS011;39658;51.090;-1.786;2022-08-19T11:47:43;13.60;;;3.08;;
53261;SDS011;39658;51.090;-1.786;2022-08-19T11:50:11;10.85;;;3.10;;
53261;SDS011;39658;51.090;-1.786;2022-08-19T11:52:37;12.38;;;3.10;;
53261;SDS011;39658;51.090;-1.786;2022-08-19T11:55:07;10.23;;;2.83;;
53261;SDS011;39658;51.090;-1.786;2022-08-19T11:57:34;11.70;;;3.10;;
53261;SDS011;39658;51.090;-1.786;2022-08-19T12:00:02;7.37;;;2.50;;
53261;SDS011;39658;51.090;-1.786;2022-08-19T12:02:31;12.48;;;3.08;;
53261;SDS011;39658;51.090;-1.786;2022-08-19T12:04:58;9.45;;;3.15;;
53261;SDS011;39658;51.090;-1.786;2022-08-19T12:07:27;10.07;;;2.80;;
53261;SDS011;39658;51.090;-1.786;2022-08-19T12:09:54;11.35;;;3.00;;
53261;SDS011;39658;51.090;-1.786;2022-08-19T12:12:22;14.35;;;3.08;;
53261;SDS011;39658;51.090;-1.786;2022-08-19T12:14:49;11.15;;;2.78;;
53261;SDS011;39658;51.090;-1.786;2022-08-19T12:17:21;11.18;;;3.15;;
53261;SDS011;39658;51.090;-1.786;2022-08-19T12:19:48;11.75;;;3.67;;
53261;SDS011;39658;51.090;-1.786;2022-08-19T12:22:15;9.23;;;2.78;;
53261;SDS011;39658;51.090;-1.786;2022-08-19T12:24:42;10.57;;;2.95;;
53261;SDS011;39658;51.090;-1.786;2022-08-19T12:27:08;12.32;;;2.95;;
53261;SDS011;39658;51.090;-1.786;2022-08-19T12:29:37;11.30;;;2.80;;
53261;SDS011;39658;51.090;-1.786;2022-08-19T12:32:03;10.35;;;2.80;;
53261;SDS011;39658;51.090;-1.786;2022-08-19T12:34:31;15.30;;;3.00;;
53261;SDS011;39658;51.090;-1.786;2022-08-19T12:37:00;9.07;;;2.60;;
53261;SDS011;39658;51.090;-1.786;2022-08-19T12:39:29;9.10;;;2.45;;
53261;SDS011;39658;51.090;-1.786;2022-08-19T12:41:59;7.63;;;2.50;;
53261;SDS011;39658;51.090;-1.786;2022-08-19T12:44:26;9.43;;;2.78;;
53261;SDS011;39658;51.090;-1.786;2022-08-19T12:46:55;9.90;;;2.75;;
53261;SDS011;39658;51.090;-1.786;2022-08-19T12:49:22;10.40;;;2.55;;
53261;SDS011;39658;51.090;-1.786;2022-08-19T12:51:49;10.20;;;3.05;;
53261;SDS011;39658;51.090;-1.786;2022-08-19T12:54:17;15.40;;;2.88;;
53261;SDS011;39658;51.090;-1.786;2022-08-19T12:56:45;10.52;;;2.95;;
53261;SDS011;39658;51.090;-1.786;2022-08-19T12:59:11;11.00;;;3.03;;
53261;SDS011;39658;51.090;-1.786;2022-08-19T13:01:40;8.55;;;2.42;;
53261;SDS011;39658;51.090;-1.786;2022-08-19T13:04:08;10.85;;;2.60;;
53261;SDS011;39658;51.090;-1.786;2022-08-19T13:06:35;8.48;;;2.53;;
53261;SDS011;39658;51.090;-1.786;2022-08-19T13:09:02;10.73;;;3.00;;
53261;SDS011;39658;51.090;-1.786;2022-08-19T13:11:30;9.60;;;2.90;;
53261;SDS011;39658;51.090;-1.786;2022-08-19T13:13:57;11.02;;;3.03;;
53261;SDS011;39658;51.090;-1.786;2022-08-19T13:16:25;9.88;;;2.83;;
53261;SDS011;39658;51.090;-1.786;2022-08-19T13:18:52;13.35;;;2.70;;
53261;SDS011;39658;51.090;-1.786;2022-08-19T13:21:22;13.35;;;2.97;;
53261;SDS011;39658;51.090;-1.786;2022-08-19T13:23:51;11.65;;;3.50;;
53261;SDS011;39658;51.090;-1.786;2022-08-19T13:26:19;14.57;;;3.35;;
53261;SDS011;39658;51.090;-1.786;2022-08-19T13:28:46;10.57;;;2.97;;
53261;SDS011;39658;51.090;-1.786;2022-08-19T13:31:31;10.45;;;3.20;;
53261;SDS011;39658;51.090;-1.786;2022-08-19T13:34:18;10.02;;;2.95;;
53261;SDS011;39658;51.090;-1.786;2022-08-19T13:36:53;14.93;;;3.58;;
53261;SDS011;39658;51.090;-1.786;2022-08-19T13:39:19;11.77;;;2.95;;
53261;SDS011;39658;51.090;-1.786;2022-08-19T13:41:48;9.77;;;2.97;;
53261;SDS011;39658;51.090;-1.786;2022-08-19T13:44:15;11.02;;;3.05;;
53261;SDS011;39658;51.090;-1.786;2022-08-19T13:46:43;12.23;;;3.00;;
53261;SDS011;39658;51.090;-1.786;2022-08-19T13:49:10;10.95;;;3.03;;
53261;SDS011;39658;51.090;-1.786;2022-08-19T13:51:38;14.07;;;3.42;;
53261;SDS011;39658;51.090;-1.786;2022-08-19T13:54:07;8.50;;;2.88;;
53261;SDS011;39658;51.090;-1.786;2022-08-19T13:56:34;12.25;;;3.35;;
53261;SDS011;39658;51.090;-1.786;2022-08-19T13:59:05;9.88;;;2.92;;
53261;SDS011;39658;51.090;-1.786;2022-08-19T14:01:32;16.60;;;3.33;;
53261;SDS011;39658;51.090;-1.786;2022-08-19T14:04:00;10.43;;;3.00;;
53261;SDS011;39658;51.090;-1.786;2022-08-19T14:06:26;11.65;;;3.17;;
53261;SDS011;39658;51.090;-1.786;2022-08-19T14:08:53;9.50;;;2.97;;
53261;SDS011;39658;51.090;-1.786;2022-08-19T14:11:21;9.63;;;2.78;;
53261;SDS011;39658;51.090;-1.786;2022-08-19T14:13:49;8.27;;;2.63;;
53261;SDS011;39658;51.090;-1.786;2022-08-19T14:16:16;11.63;;;2.78;;
53261;SDS011;39658;51.090;-1.786;2022-08-19T14:18:43;11.80;;;3.05;;
53261;SDS011;39658;51.090;-1.786;2022-08-19T14:21:13;11.60;;;2.92;;
53261;SDS011;39658;51.090;-1.786;2022-08-19T14:23:42;14.98;;;3.88;;
53261;SDS011;39658;51.090;-1.786;2022-08-19T14:26:11;18.08;;;4.03;;
53261;SDS011;39658;51.090;-1.786;2022-08-19T14:28:42;12.48;;;3.17;;
53261;SDS011;39658;51.090;-1.786;2022-08-19T14:31:09;10.75;;;3.15;;
53261;SDS011;39658;51.090;-1.786;2022-08-19T14:33:36;11.95;;;3.20;;
53261;SDS011;39658;51.090;-1.786;2022-08-19T14:36:04;12.30;;;3.33;;
53261;SDS011;39658;51.090;-1.786;2022-08-19T14:38:31;11.40;;;3.22;;